Clair avec quelques nuages bas et quelques cirrus
Partiellement nuageux et quelques cirrus
Partiellement nuageux avec quelques cirrus
Partiellement nuageux
Partiellement nuageux
Clair avec quelques nuages bas
Ciel clair mais brumeux
(°C)
14°
14°
13°
13°
13°
13°
12°
12°
12°
12°
11°
11°
12°
12°
(°C)
13°
12°
12°
12°
11°
11°
11°
OSO
OSO
OSO
SO
SSO
SSO
SSE
(km/h)
5-15
4-15
3-13
3-9
3-7
3-8
3-8
(mm)
0
0
0
0
0
0
0
(%)
0
0
0
0
0
0
0

Élévation du soleil

/ -26.7°
sun-icon
UV 7
06:13
20:52
Pleine lune (176°)
21:11
05:44

METAR pour Ioannina (LGIO)

Heure Conditions Température/
Point de rosée
Vent Visibilité Météo Nuages Pression Changement Brut
15°C / 10°C 2kt - 1016 - LGIO 222050Z AUTO VRB02KT //// // ////// 15/10 Q1016 RE//
15°C / 9°C 320º 4kt - 1016 - LGIO 222020Z AUTO 32004KT //// // ////// 15/09 Q1016 RE//
16°C / 9°C 310º 4kt - 1016 - LGIO 221950Z AUTO 31004KT //// // ////// 16/09 Q1016 RE//
VFR 16°C / 10°C 310º 4kt 9700m - Few Clouds 9000ft 1015 - LGIO 221920Z 31004KT 9999 FEW090 16/10 Q1015
VFR 18°C / 9°C 280º 6kt 9700m - Few Clouds 9000ft 1015 - LGIO 221850Z 28006KT 9999 FEW090 18/09 Q1015
VFR 18°C / 9°C 290º variable 240º to 320º 4kt 9700m - Few Clouds 9000ft 1014 - LGIO 221820Z 29004KT 240V320 9999 FEW090 18/09 Q1014
VFR 19°C / 9°C 300º 6kt 9700m - Few Clouds 9000ft 1014 - LGIO 221750Z 30006KT 9999 FEW090 19/09 Q1014
VFR 21°C / 9°C 280º variable 260º to 320º 5kt 9700m - Few Clouds 4000ft 1014 - LGIO 221720Z 28005KT 260V320 9999 FEW040 21/09 Q1014
VFR 22°C / 8°C 270º variable 240º to 300º 7kt 9700m - Few Clouds 4000ft 1013 - LGIO 221650Z 27007KT 240V300 9999 FEW040 22/08 Q1013
VFR 22°C / 8°C 290º variable 240º to 310º 9kt 9700m - Few Clouds 4000ft 1013 - LGIO 221620Z 29009KT 240V310 9999 FEW040 22/08 Q1013
VFR 23°C / 9°C 270º variable 240º to 320º 8kt 9700m - Few Clouds 4000ft 1013 - LGIO 221550Z 27008KT 240V320 9999 FEW040 23/09 Q1013
VFR 23°C / 9°C 280º variable 230º to 320º 9kt 9700m - Few Clouds 4000ft 1013 - LGIO 221520Z 28009KT 230V320 9999 FEW040 23/09 Q1013
24°C / 8°C 290º variable 230º to 320º 11kt - 1013 - LGIO 221450Z AUTO 29011KT 230V320 //// // ////// 24/08 Q1013 RE//
24°C / 11°C 260º variable 230º to 310º 11kt - 1013 - LGIO 221420Z AUTO 26011KT 230V310 //// // ////// 24/11 Q1013 RE//
24°C / 11°C 300º variable 240º to 320º 13kt - 1013 - LGIO 221350Z AUTO 30013KT 240V320 //// // ////// 24/11 Q1013 RE//
25°C / 12°C 270º variable 220º to 340º 10kt - 1013 - LGIO 221320Z AUTO 27010KT 220V340 //// // ////// 25/12 Q1013 RE//
25°C / 13°C 300º variable 250º to 330º 12kt - 1013 - LGIO 221250Z AUTO 30012KT 250V330 //// // ////// 25/13 Q1013 RE//
25°C / 13°C 310º variable 260º to 320º 12kt - 1013 - LGIO 221220Z AUTO 31012KT 260V320 //// // ////// 25/13 Q1013 RE//
26°C / 14°C 300º variable 260º to 320º 11kt - 1013 - LGIO 221150Z AUTO 30011KT 260V320 //// // ////// 26/14 Q1013 RE//
26°C / 13°C 310º variable 280º to 340º 10kt - 1013 - LGIO 221120Z AUTO 31010KT 280V340 //// // ////// 26/13 Q1013 RE//
VFR 26°C / 12°C 300º variable 250º to 340º 8kt 9700m - Few Clouds 4000ft 1013 - LGIO 221050Z 30008KT 250V340 9999 FEW040 26/12 Q1013
VFR 26°C / 10°C 5kt 9700m - Few Clouds 4000ft 1013 - LGIO 221020Z VRB05KT 9999 FEW040 26/10 Q1013
VFR 26°C / 11°C 320º variable 220º to 020º 5kt Gust 19kt 9700m - Few Clouds 4000ft 1013 - LGIO 220950Z 32005G19KT 220V020 9999 FEW040 26/11 Q1013
VFR 25°C / 13°C 310º variable 290º to 030º 6kt 9700m - Few Clouds 4000ft 1014 - LGIO 220920Z 31006KT 290V030 9999 FEW040 25/13 Q1014

15°C / 10°C

[Plus]
Vent 2kt
Visibilité
Météo -
Nuages
Pression 1016
Changement -
Brut LGIO 222050Z AUTO VRB02KT //// // ////// 15/10 Q1016 RE//

15°C / 9°C

[Plus]
Vent 320º 4kt
Visibilité
Météo -
Nuages
Pression 1016
Changement -
Brut LGIO 222020Z AUTO 32004KT //// // ////// 15/09 Q1016 RE//

16°C / 9°C

[Plus]
Vent 310º 4kt
Visibilité
Météo -
Nuages
Pression 1016
Changement -
Brut LGIO 221950Z AUTO 31004KT //// // ////// 16/09 Q1016 RE//

VFR

16°C / 10°C

[Plus]
Vent 310º 4kt
Visibilité 9700m
Météo -
Nuages Few Clouds 9000ft
Pression 1015
Changement -
Brut LGIO 221920Z 31004KT 9999 FEW090 16/10 Q1015

VFR

18°C / 9°C

[Plus]
Vent 280º 6kt
Visibilité 9700m
Météo -
Nuages Few Clouds 9000ft
Pression 1015
Changement -
Brut LGIO 221850Z 28006KT 9999 FEW090 18/09 Q1015

VFR

18°C / 9°C

[Plus]
Vent 290º variable 240º to 320º 4kt
Visibilité 9700m
Météo -
Nuages Few Clouds 9000ft
Pression 1014
Changement -
Brut LGIO 221820Z 29004KT 240V320 9999 FEW090 18/09 Q1014

VFR

19°C / 9°C

[Plus]
Vent 300º 6kt
Visibilité 9700m
Météo -
Nuages Few Clouds 9000ft
Pression 1014
Changement -
Brut LGIO 221750Z 30006KT 9999 FEW090 19/09 Q1014

VFR

21°C / 9°C

[Plus]
Vent 280º variable 260º to 320º 5kt
Visibilité 9700m
Météo -
Nuages Few Clouds 4000ft
Pression 1014
Changement -
Brut LGIO 221720Z 28005KT 260V320 9999 FEW040 21/09 Q1014

VFR

22°C / 8°C

[Plus]
Vent 270º variable 240º to 300º 7kt
Visibilité 9700m
Météo -
Nuages Few Clouds 4000ft
Pression 1013
Changement -
Brut LGIO 221650Z 27007KT 240V300 9999 FEW040 22/08 Q1013

VFR

22°C / 8°C

[Plus]
Vent 290º variable 240º to 310º 9kt
Visibilité 9700m
Météo -
Nuages Few Clouds 4000ft
Pression 1013
Changement -
Brut LGIO 221620Z 29009KT 240V310 9999 FEW040 22/08 Q1013

VFR

23°C / 9°C

[Plus]
Vent 270º variable 240º to 320º 8kt
Visibilité 9700m
Météo -
Nuages Few Clouds 4000ft
Pression 1013
Changement -
Brut LGIO 221550Z 27008KT 240V320 9999 FEW040 23/09 Q1013

VFR

23°C / 9°C

[Plus]
Vent 280º variable 230º to 320º 9kt
Visibilité 9700m
Météo -
Nuages Few Clouds 4000ft
Pression 1013
Changement -
Brut LGIO 221520Z 28009KT 230V320 9999 FEW040 23/09 Q1013

24°C / 8°C

[Plus]
Vent 290º variable 230º to 320º 11kt
Visibilité
Météo -
Nuages
Pression 1013
Changement -
Brut LGIO 221450Z AUTO 29011KT 230V320 //// // ////// 24/08 Q1013 RE//

24°C / 11°C

[Plus]
Vent 260º variable 230º to 310º 11kt
Visibilité
Météo -
Nuages
Pression 1013
Changement -
Brut LGIO 221420Z AUTO 26011KT 230V310 //// // ////// 24/11 Q1013 RE//

24°C / 11°C

[Plus]
Vent 300º variable 240º to 320º 13kt
Visibilité
Météo -
Nuages
Pression 1013
Changement -
Brut LGIO 221350Z AUTO 30013KT 240V320 //// // ////// 24/11 Q1013 RE//

25°C / 12°C

[Plus]
Vent 270º variable 220º to 340º 10kt
Visibilité
Météo -
Nuages
Pression 1013
Changement -
Brut LGIO 221320Z AUTO 27010KT 220V340 //// // ////// 25/12 Q1013 RE//

25°C / 13°C

[Plus]
Vent 300º variable 250º to 330º 12kt
Visibilité
Météo -
Nuages
Pression 1013
Changement -
Brut LGIO 221250Z AUTO 30012KT 250V330 //// // ////// 25/13 Q1013 RE//

25°C / 13°C

[Plus]
Vent 310º variable 260º to 320º 12kt
Visibilité
Météo -
Nuages
Pression 1013
Changement -
Brut LGIO 221220Z AUTO 31012KT 260V320 //// // ////// 25/13 Q1013 RE//

26°C / 14°C

[Plus]
Vent 300º variable 260º to 320º 11kt
Visibilité
Météo -
Nuages
Pression 1013
Changement -
Brut LGIO 221150Z AUTO 30011KT 260V320 //// // ////// 26/14 Q1013 RE//

26°C / 13°C

[Plus]
Vent 310º variable 280º to 340º 10kt
Visibilité
Météo -
Nuages
Pression 1013
Changement -
Brut LGIO 221120Z AUTO 31010KT 280V340 //// // ////// 26/13 Q1013 RE//

VFR

26°C / 12°C

[Plus]
Vent 300º variable 250º to 340º 8kt
Visibilité 9700m
Météo -
Nuages Few Clouds 4000ft
Pression 1013
Changement -
Brut LGIO 221050Z 30008KT 250V340 9999 FEW040 26/12 Q1013

VFR

26°C / 10°C

[Plus]
Vent 5kt
Visibilité 9700m
Météo -
Nuages Few Clouds 4000ft
Pression 1013
Changement -
Brut LGIO 221020Z VRB05KT 9999 FEW040 26/10 Q1013

VFR

26°C / 11°C

[Plus]
Vent 320º variable 220º to 020º 5kt Gust 19kt
Visibilité 9700m
Météo -
Nuages Few Clouds 4000ft
Pression 1013
Changement -
Brut LGIO 220950Z 32005G19KT 220V020 9999 FEW040 26/11 Q1013

VFR

25°C / 13°C

[Plus]
Vent 310º variable 290º to 030º 6kt
Visibilité 9700m
Météo -
Nuages Few Clouds 4000ft
Pression 1014
Changement -
Brut LGIO 220920Z 31006KT 290V030 9999 FEW040 25/13 Q1014

TAF pour Ioannina (LGIO)

From till


From till Wind 3kt. Visibility 9700m. Few Clouds 2500ft.

Brut: TAF LGIO 222000Z 2221/2306 VRB03KT 9999 FEW025

Radar et prévision de précipitation à court terme pour Ioannina

Bruine
Légère
Modéré
Fort
Très fort
Grêle

Le marqueur est placé sur Ioannina. Cette animation montre le radar des précipitations pour la plage horaire sélectionnée, ainsi qu'une 2h prévision. Les croix orange indiquent la foudre. Données fournies par nowcast.de (disponibles aux États-Unis, en Europe et en Australie). Une bruine ou une légère chute de neige peut être invisible pour le radar. L'intensité des précipitations est codée par couleur, allant du turquoise au rouge.

Les images satellites et les pluies actuelles pour Ioannina, Grèce

Le marqueur est placé sur Ioannina. [Plus]

L'image satellite en temps réel combine la lumière visible pendant la journée et le rayonnement infrarouge pendant la nuit. La nuit, l'image n'est pas sombre car le rayonnement infrarouge permet de détecter les différences de température. Malheureusement, les nuages bas et le brouillard sont difficiles à distinguer des températures au sol et peuvent donc être presque invisibles pendant la nuit. Les images des satellites Météosat pour l'Europe sont mises à jour en temps réel toutes les 5 minutes. Les images GOES-16/GOES-17 (Amérique du Nord et du Sud) et Himawari (Asie) sont mises à jour toutes les 10 minutes.

Les précipitations sont estimées à partir de radars et de satellites. Les estimations des précipitations par satellite sont moins précises la nuit que le jour.

© 2024 meteoblue, NOAA Satellites GOES-16 and EUMETSAT. Données de foudre fournies par nowcast.

Retour vers le haut
×
Salut,
Il semble que vous utilisiez un logiciel antipub.

La publicité est essentielle pour maintenir notre site web gratuit avec des détails et précision uniques.

Veuillez mettre www.meteoblue.com sur la liste blanche de votre bloqueur de publicité ou envisager d'acheter l'un de nos produits :

Vous avez déjà un abonnement ?
Dans ce cas, veuillez vous connecter.